Manta — WDJ4833 — position and weather

sailwx.info

Track history (hours):
 
Tides and Currents Weather Stations Pressure Air Temp Water Temp Dewpoint Dewpoint Depression Visibility Wind Speed Wind Dir Waves Ship Positions

Manta

Owner: Sutton, Alexander, Kirkland, WA. More information available from US FCC via Universal Licensing System and Coast Guard Vessel Documentation Center.

Last reported at 2018-Jul-14 10:02 UTC. Time now 2018-Jul-23 17:32 UTC.
Position N 48°30' W 122°41'.
Warning: this ship's position is 9 days out of date.

Length 17 m.

Type: Pleasure craft. MMSI: 367781580.

Date/timePositionNaut miles runAvg speedWind from/ knotsBaromVisibWave heightAir tempDewpointWater temp
2018-Jul-14 10:02N 48°30' W 122°41'  
2018-Jul-08 22:21N 48°29' W 122°42'3 9.0
2018-Jul-08 22:01N 48°31' W 122°46'5 9.2
2018-Jul-08 21:30N 48°34' W 122°52'4 8.8
2018-Jul-08 21:00N 48°36' W 122°58'13 8.9
2018-Jul-08 19:29N 48°43' W 123°14'4 9.0
2018-Jul-08 19:00N 48°46' W 123°20'5 8.3
2018-Jul-08 18:26N 48°49' W 123°25'4 2.5
2018-Jul-08 16:50N 48°51' W 123°30'0 0.0
2018-Jul-08 16:26N 48°51' W 123°30'0 0.0
2018-Jul-07 14:14N 48°51' W 123°30'2 0.1
2018-Jul-06 23:13N 48°51' W 123°28'2 8.0
2018-Jul-06 22:59N 48°50' W 123°25'9 8.1
2018-Jul-06 21:52N 48°57' W 123°35'2 6.5
2018-Jul-06 21:29N 48°56' W 123°39'  
Track history (hours):
 
Tides and Currents Weather Stations Pressure Air Temp Water Temp Dewpoint Dewpoint Depression Visibility Wind Speed Wind Dir Waves Ship Positions

Manta

Owner: Sutton, Alexander, Kirkland, WA. More information available from US FCC via Universal Licensing System and Coast Guard Vessel Documentation Center.

Last reported at 2018-Jul-14 10:02 UTC. Time now 2018-Jul-23 17:32 UTC.
Position N 48°30' W 122°41'.
Warning: this ship's position is 9 days out of date.

Length 17 m.

Type: Pleasure craft. MMSI: 367781580.

Date/timePositionNaut miles runAvg speedWind from/ knotsBaromVisibWave heightAir tempDewpointWater temp
2018-Jul-14 10:02N 48°30' W 122°41'  
2018-Jul-08 22:21N 48°29' W 122°42'3 9.0
2018-Jul-08 22:01N 48°31' W 122°46'5 9.2
2018-Jul-08 21:30N 48°34' W 122°52'4 8.8
2018-Jul-08 21:00N 48°36' W 122°58'13 8.9
2018-Jul-08 19:29N 48°43' W 123°14'4 9.0
2018-Jul-08 19:00N 48°46' W 123°20'5 8.3
2018-Jul-08 18:26N 48°49' W 123°25'4 2.5
2018-Jul-08 16:50N 48°51' W 123°30'0 0.0
2018-Jul-08 16:26N 48°51' W 123°30'0 0.0
2018-Jul-07 14:14N 48°51' W 123°30'2 0.1
2018-Jul-06 23:13N 48°51' W 123°28'2 8.0
2018-Jul-06 22:59N 48°50' W 123°25'9 8.1
2018-Jul-06 21:52N 48°57' W 123°35'2 6.5
2018-Jul-06 21:29N 48°56' W 123°39'  

Dump ship's entire track history